createdAt,value
2022-07-27T00:00:10.203Z,98072.66
2022-07-27T00:03:02.693Z,98068.44
2022-07-27T00:05:51.191Z,98079.69
2022-07-27T00:08:39.684Z,98082.66
2022-07-27T00:11:28.078Z,98071.91
2022-07-27T00:14:16.522Z,98065.75
2022-07-27T00:17:04.869Z,98067.97
2022-07-27T00:19:54.708Z,98064.16
2022-07-27T00:22:43.136Z,98066.28
2022-07-27T00:25:31.438Z,98065.81
2022-07-27T00:28:19.850Z,98068.75
2022-07-27T00:31:08.229Z,98076.91
2022-07-27T00:33:56.633Z,98075.66
2022-07-27T00:36:46.432Z,98072.72
2022-07-27T00:39:36.524Z,98055.69
2022-07-27T00:42:28.145Z,98070.25
2022-07-27T00:45:16.616Z,98072.63
2022-07-27T00:48:05.828Z,98073.19
2022-07-27T00:50:54.186Z,98076.78
2022-07-27T00:53:44.440Z,98080.13
2022-07-27T00:56:32.812Z,98069.75
2022-07-27T00:59:21.641Z,98069.53
2022-07-27T01:02:11.172Z,98069.44
2022-07-27T01:05:00.726Z,98067.44
2022-07-27T01:07:50.270Z,98074.03
2022-07-27T01:10:40.545Z,98076.75
2022-07-27T01:13:29.247Z,98073.25
2022-07-27T01:16:17.656Z,98077.41
2022-07-27T01:19:06.181Z,98083.13
2022-07-27T01:21:56.481Z,98086.25
2022-07-27T01:24:45.079Z,98086.88
2022-07-27T01:27:33.467Z,98090.59
2022-07-27T01:30:31.311Z,98086.47
2022-07-27T01:33:25.828Z,98089.84
2022-07-27T01:36:14.253Z,98090.78
2022-07-27T01:39:04.208Z,98088.28
2022-07-27T01:41:52.557Z,98087.91
2022-07-27T01:44:40.899Z,98082.56
2022-07-27T01:47:29.292Z,98073.47
2022-07-27T01:50:17.887Z,98082.75
2022-07-27T01:53:09.106Z,98078.66
2022-07-27T01:55:59.968Z,98077.75
2022-07-27T01:58:48.363Z,98079.59
2022-07-27T02:01:36.809Z,98072.31
2022-07-27T02:04:25.229Z,98077.88
2022-07-27T02:07:13.560Z,98075.50
2022-07-27T02:10:01.992Z,98076.44
2022-07-27T02:12:52.730Z,98070.72
2022-07-27T02:15:44.585Z,98073.78
2022-07-27T02:18:36.453Z,98075.28
2022-07-27T02:21:26.146Z,98074.56
2022-07-27T02:24:14.586Z,98069.16
2022-07-27T02:27:03.022Z,98063.88
2022-07-27T02:29:53.852Z,98071.09
2022-07-27T02:32:44.321Z,98082.91
2022-07-27T02:35:32.855Z,98092.50
2022-07-27T02:38:21.163Z,98091.47
2022-07-27T02:41:09.519Z,98087.91
2022-07-27T02:43:58.269Z,98087.66
2022-07-27T02:46:48.040Z,98094.94
2022-07-27T02:49:36.481Z,98097.81
2022-07-27T02:52:24.844Z,98092.84
2022-07-27T02:55:13.462Z,98090.19
2022-07-27T02:58:01.893Z,98094.75
2022-07-27T03:00:52.562Z,98091.41
2022-07-27T03:03:46.078Z,98096.38
2022-07-27T03:06:34.538Z,98097.91
2022-07-27T03:09:32.720Z,98107.63
2022-07-27T03:12:21.836Z,98117.69
2022-07-27T03:15:11.484Z,98123.06
2022-07-27T03:17:59.885Z,98128.75
2022-07-27T03:20:49.956Z,98130.78
2022-07-27T03:23:38.886Z,98128.44
2022-07-27T03:26:30.649Z,98130.63
2022-07-27T03:29:19.003Z,98130.16
2022-07-27T03:32:07.987Z,98136.22
2022-07-27T03:34:56.441Z,98137.88
2022-07-27T03:37:46.326Z,98132.31
2022-07-27T03:40:35.134Z,98130.31
2022-07-27T03:43:23.450Z,98128.22
2022-07-27T03:46:12.861Z,98132.53
2022-07-27T03:49:01.649Z,98140.34
2022-07-27T03:52:02.804Z,98130.78
2022-07-27T03:54:52.503Z,98125.91
2022-07-27T03:57:41.187Z,98132.94
2022-07-27T04:00:29.898Z,98123.94
2022-07-27T04:03:18.647Z,98140.28
2022-07-27T04:06:07.158Z,98130.44
2022-07-27T04:08:59.648Z,98147.94
2022-07-27T04:11:58.220Z,98145.81
2022-07-27T04:14:47.937Z,98144.34
2022-07-27T04:17:53.534Z,98149.09
2022-07-27T04:20:44.715Z,98159.84
2022-07-27T04:23:37.819Z,98153.03
2022-07-27T04:26:26.583Z,98154.22
2022-07-27T04:29:20.505Z,98146.44
2022-07-27T04:32:09.607Z,98149.69
2022-07-27T04:34:57.917Z,98147.97
2022-07-27T04:37:57.764Z,98144.94
2022-07-27T04:40:47.981Z,98151.81
2022-07-27T04:43:36.431Z,98148.34
2022-07-27T04:46:26.328Z,98165.66
2022-07-27T04:49:15.276Z,98160.22
2022-07-27T04:52:03.817Z,98152.22
2022-07-27T04:54:53.330Z,98170.66
2022-07-27T04:57:42.401Z,98165.66
2022-07-27T05:00:30.940Z,98160.56
2022-07-27T05:03:20.978Z,98162.75
2022-07-27T05:06:09.377Z,98157.38
2022-07-27T05:08:57.733Z,98159.94
2022-07-27T05:11:51.089Z,98166.50
2022-07-27T05:14:40.587Z,98161.59
2022-07-27T05:17:29.121Z,98171.44
2022-07-27T05:20:18.941Z,98169.72
2022-07-27T05:23:07.346Z,98164.59
2022-07-27T05:25:55.731Z,98171.13
2022-07-27T05:28:44.156Z,98168.25
2022-07-27T05:31:32.798Z,98176.72
2022-07-27T05:34:21.251Z,98166.56
2022-07-27T05:37:11.098Z,98178.41
2022-07-27T05:39:59.481Z,98181.16
2022-07-27T05:42:48.049Z,98177.84
2022-07-27T05:45:36.432Z,98185.78
2022-07-27T05:48:25.195Z,98192.66
2022-07-27T05:51:13.574Z,98196.97
2022-07-27T05:54:03.324Z,98196.41
2022-07-27T05:56:52.401Z,98186.25
2022-07-27T05:59:40.753Z,98193.34
2022-07-27T06:02:31.705Z,98206.09
2022-07-27T06:05:20.026Z,98199.44
2022-07-27T06:08:08.997Z,98191.59
2022-07-27T06:10:58.711Z,98198.03
2022-07-27T06:13:47.296Z,98205.31
2022-07-27T06:16:38.427Z,98203.75
2022-07-27T06:19:36.445Z,98205.72
2022-07-27T06:22:25.315Z,98208.69
2022-07-27T06:25:13.904Z,98220.41
2022-07-27T06:28:04.567Z,98218.06
2022-07-27T06:30:54.538Z,98210.91
2022-07-27T06:33:45.376Z,98222.81
2022-07-27T06:36:36.647Z,98217.19
2022-07-27T06:39:25.039Z,98219.91
2022-07-27T06:42:14.581Z,98212.91
2022-07-27T06:45:04.767Z,98210.78
2022-07-27T06:47:53.095Z,98201.47
2022-07-27T06:50:41.555Z,98214.03
2022-07-27T06:53:29.883Z,98209.00
2022-07-27T06:56:25.094Z,98209.81
2022-07-27T06:59:13.975Z,98213.22
2022-07-27T07:02:03.987Z,98213.03
2022-07-27T07:04:52.379Z,98220.25
2022-07-27T07:07:40.653Z,98217.53
2022-07-27T07:10:29.244Z,98224.38
2022-07-27T07:13:17.749Z,98223.69
2022-07-27T07:16:06.878Z,98236.59
2022-07-27T07:18:56.687Z,98240.84
2022-07-27T07:21:45.054Z,98235.16
2022-07-27T07:24:33.736Z,98245.25
2022-07-27T07:27:23.617Z,98234.78
2022-07-27T07:30:13.348Z,98230.78
2022-07-27T07:33:03.118Z,98225.31
2022-07-27T07:36:12.199Z,98231.28
2022-07-27T07:39:01.420Z,98220.97
2022-07-27T07:41:49.778Z,98235.59
2022-07-27T07:44:38.432Z,98242.44
2022-07-27T07:47:27.933Z,98244.97
2022-07-27T07:50:16.781Z,98252.38
2022-07-27T07:53:06.589Z,98257.59
2022-07-27T07:55:56.354Z,98253.00
2022-07-27T07:58:44.709Z,98257.88
2022-07-27T08:01:33.228Z,98269.13
2022-07-27T08:04:21.737Z,98273.88
2022-07-27T08:07:10.150Z,98264.97
2022-07-27T08:09:59.892Z,98270.84
2022-07-27T08:12:50.688Z,98268.13
2022-07-27T08:15:39.111Z,98264.13
2022-07-27T08:18:27.453Z,98267.19
2022-07-27T08:21:15.874Z,98270.84
2022-07-27T08:24:04.774Z,98268.63
2022-07-27T08:26:54.533Z,98259.28
2022-07-27T08:29:42.846Z,98262.75
2022-07-27T08:32:31.318Z,98263.19
2022-07-27T08:35:20.830Z,98262.19
2022-07-27T08:38:10.522Z,98258.81
2022-07-27T08:41:03.296Z,98258.66
2022-07-27T08:43:55.748Z,98263.34
2022-07-27T08:46:46.813Z,98262.59
2022-07-27T08:49:42.962Z,98242.56
2022-07-27T08:52:33.123Z,98248.56
2022-07-27T08:55:22.049Z,98254.38
2022-07-27T08:58:11.608Z,98248.94
2022-07-27T09:01:01.440Z,98249.19
2022-07-27T09:03:49.810Z,98251.88
2022-07-27T09:06:42.573Z,98252.56
2022-07-27T09:09:45.934Z,98263.19
2022-07-27T09:12:35.404Z,98259.69
2022-07-27T09:15:23.916Z,98249.88
2022-07-27T09:18:19.900Z,98253.47
2022-07-27T09:21:14.775Z,98247.91
2022-07-27T09:24:23.569Z,98255.31
2022-07-27T09:27:31.200Z,98250.50
2022-07-27T09:30:21.549Z,98244.63
2022-07-27T09:33:09.894Z,98235.56
2022-07-27T09:36:00.647Z,98247.13
2022-07-27T09:38:58.580Z,98240.13
2022-07-27T09:41:52.667Z,98232.78
2022-07-27T09:44:44.765Z,98233.81
2022-07-27T09:47:34.593Z,98228.31
2022-07-27T09:50:31.070Z,98225.75
2022-07-27T09:53:42.469Z,98233.41
2022-07-27T09:56:33.666Z,98221.72
2022-07-27T09:59:22.022Z,98221.59
2022-07-27T10:02:13.271Z,98224.56
2022-07-27T10:05:02.697Z,98224.50
2022-07-27T10:07:52.597Z,98227.75
2022-07-27T10:10:42.442Z,98215.59
2022-07-27T10:13:30.836Z,98214.22
2022-07-27T10:16:22.437Z,98217.75
2022-07-27T10:19:15.471Z,98215.59
2022-07-27T10:22:03.896Z,98212.91
2022-07-27T10:25:00.500Z,98220.84
2022-07-27T10:28:08.877Z,98234.66
2022-07-27T10:31:17.508Z,98230.34
2022-07-27T10:34:07.275Z,98225.56
2022-07-27T10:36:55.599Z,98223.00
2022-07-27T10:39:45.483Z,98225.81
2022-07-27T10:42:33.935Z,98230.97
2022-07-27T10:45:23.917Z,98228.06
2022-07-27T10:48:36.164Z,98223.91
2022-07-27T10:51:36.177Z,98217.63
2022-07-27T10:54:27.518Z,98222.34
2022-07-27T10:57:27.562Z,98217.13
2022-07-27T11:00:19.733Z,98225.47
2022-07-27T11:03:09.975Z,98225.03
2022-07-27T11:06:04.722Z,98233.41
2022-07-27T11:12:13.846Z,98220.25
2022-07-27T11:15:02.457Z,98227.69
2022-07-27T11:18:03.473Z,98224.78
2022-07-27T11:20:54.761Z,98218.78
2022-07-27T11:23:51.654Z,98218.53
2022-07-27T11:26:42.329Z,98209.88
2022-07-27T11:29:35.622Z,98204.38
2022-07-27T11:32:28.469Z,98200.56
2022-07-27T11:35:20.162Z,98196.69
2022-07-27T11:38:10.196Z,98212.03
2022-07-27T11:41:12.667Z,98199.75
2022-07-27T11:44:09.929Z,98186.00
2022-07-27T11:47:01.883Z,98186.56
2022-07-27T11:49:50.684Z,98186.06
2022-07-27T11:52:39.407Z,98183.41
2022-07-27T11:55:29.237Z,98188.91
2022-07-27T11:58:18.614Z,98180.06
2022-07-27T12:01:07.975Z,98187.34
2022-07-27T12:04:14.320Z,98179.41
2022-07-27T12:07:06.821Z,98182.91
2022-07-27T12:09:57.009Z,98173.84
2022-07-27T12:12:50.432Z,98190.72
2022-07-27T12:15:46.955Z,98178.06
2022-07-27T12:18:42.961Z,98178.22
2022-07-27T12:21:31.854Z,98166.78
2022-07-27T12:24:20.825Z,98170.31
2022-07-27T12:27:13.875Z,98174.84
2022-07-27T12:30:11.389Z,98176.97
2022-07-27T12:33:00.201Z,98172.25
2022-07-27T12:35:49.766Z,98176.44
2022-07-27T12:38:39.807Z,98181.63
2022-07-27T12:41:30.010Z,98186.44
2022-07-27T12:44:18.415Z,98177.19
2022-07-27T12:47:27.910Z,98177.59
2022-07-27T12:50:18.794Z,98169.03
2022-07-27T12:53:07.845Z,98170.22
2022-07-27T12:55:57.815Z,98153.03
2022-07-27T12:58:59.398Z,98160.91
2022-07-27T13:01:47.890Z,98169.38
2022-07-27T13:04:37.722Z,98170.75
2022-07-27T13:07:26.706Z,98167.50
2022-07-27T13:10:18.428Z,98174.47
2022-07-27T13:13:07.338Z,98173.09
2022-07-27T13:15:55.995Z,98160.91
2022-07-27T13:18:44.505Z,98154.06
2022-07-27T13:21:34.572Z,98159.44
2022-07-27T13:24:23.091Z,98163.38
2022-07-27T13:27:11.503Z,98160.22
2022-07-27T13:30:00.254Z,98160.28
2022-07-27T13:32:49.073Z,98164.56
2022-07-27T13:35:37.478Z,98159.94
2022-07-27T13:38:28.773Z,98157.44
2022-07-27T13:41:17.238Z,98161.94
2022-07-27T13:44:06.261Z,98158.38
2022-07-27T13:46:54.647Z,98150.41
2022-07-27T13:49:42.981Z,98165.94
2022-07-27T13:52:31.357Z,98159.28
2022-07-27T13:55:24.865Z,98161.03
2022-07-27T13:58:21.731Z,98157.19
2022-07-27T14:01:10.289Z,98147.19
2022-07-27T14:03:59.354Z,98147.84
2022-07-27T14:06:47.978Z,98144.78
2022-07-27T14:09:54.009Z,98149.63
2022-07-27T14:12:43.816Z,98149.88
2022-07-27T14:15:32.362Z,98140.91
2022-07-27T14:18:20.703Z,98153.47
2022-07-27T14:21:10.655Z,98145.09
2022-07-27T14:24:00.903Z,98141.81
2022-07-27T14:26:49.275Z,98140.69
2022-07-27T14:29:39.146Z,98143.47
2022-07-27T14:32:27.814Z,98137.34
2022-07-27T14:35:16.181Z,98136.78
2022-07-27T14:38:04.853Z,98133.19
2022-07-27T14:40:55.006Z,98139.97
2022-07-27T14:43:43.910Z,98132.47
2022-07-27T14:46:33.762Z,98140.03
2022-07-27T14:49:22.788Z,98133.31
2022-07-27T14:52:14.378Z,98128.03
2022-07-27T14:55:03.033Z,98129.59
2022-07-27T14:57:53.792Z,98137.97
2022-07-27T15:00:42.375Z,98137.13
2022-07-27T15:03:32.249Z,98137.28
2022-07-27T15:06:20.597Z,98132.06
2022-07-27T15:09:09.137Z,98136.38
2022-07-27T15:11:58.053Z,98136.72
2022-07-27T15:14:46.527Z,98132.22
2022-07-27T15:17:37.581Z,98117.59
2022-07-27T15:20:27.636Z,98110.28
2022-07-27T15:23:16.240Z,98105.44
2022-07-27T15:26:04.902Z,98108.13
2022-07-27T15:28:53.296Z,98117.28
2022-07-27T15:31:41.847Z,98118.19
2022-07-27T15:34:30.405Z,98108.44
2022-07-27T15:37:20.188Z,98116.97
2022-07-27T15:40:27.072Z,98113.06
2022-07-27T15:43:17.289Z,98104.16
2022-07-27T15:46:05.651Z,98108.16
2022-07-27T15:48:54.288Z,98105.44
2022-07-27T15:51:43.244Z,98105.69
2022-07-27T15:54:38.203Z,98104.84
2022-07-27T15:57:30.775Z,98107.88
2022-07-27T16:00:19.715Z,98104.38
2022-07-27T16:03:08.280Z,98102.28
2022-07-27T16:05:57.077Z,98106.16
2022-07-27T16:08:45.734Z,98100.31
2022-07-27T16:11:35.658Z,98100.25
2022-07-27T16:14:24.083Z,98098.31
2022-07-27T16:17:12.540Z,98095.22
2022-07-27T16:20:00.998Z,98095.56
2022-07-27T16:22:49.325Z,98099.63
2022-07-27T16:26:01.278Z,98091.22
2022-07-27T16:28:49.585Z,98096.47
2022-07-27T16:31:38.045Z,98082.03
2022-07-27T16:34:27.808Z,98084.50
2022-07-27T16:37:16.229Z,98078.44
2022-07-27T16:40:05.409Z,98082.75
2022-07-27T16:42:53.785Z,98079.28
2022-07-27T16:45:43.573Z,98078.47
2022-07-27T16:48:36.802Z,98077.78
2022-07-27T16:51:31.014Z,98077.09
2022-07-27T16:54:19.563Z,98080.00
2022-07-27T16:57:07.922Z,98083.72
2022-07-27T16:59:56.605Z,98084.09
2022-07-27T17:02:46.353Z,98081.94
2022-07-27T17:05:35.155Z,98088.38
2022-07-27T17:08:27.765Z,98093.78
2022-07-27T17:11:17.638Z,98082.91
2022-07-27T17:14:12.003Z,98087.56
2022-07-27T17:17:00.438Z,98088.63
2022-07-27T17:19:50.186Z,98096.72
2022-07-27T17:22:38.673Z,98097.16
2022-07-27T17:25:27.068Z,98096.91
2022-07-27T17:28:15.471Z,98101.63
2022-07-27T17:31:05.075Z,98103.09
2022-07-27T17:33:54.495Z,98101.63
2022-07-27T17:36:44.303Z,98107.25
2022-07-27T17:39:32.805Z,98104.78
2022-07-27T17:42:23.388Z,98107.41
2022-07-27T17:45:11.873Z,98109.47
2022-07-27T17:48:00.323Z,98107.91
2022-07-27T17:50:48.725Z,98116.88
2022-07-27T17:53:39.096Z,98120.97
2022-07-27T17:56:27.490Z,98116.25
2022-07-27T17:59:36.707Z,98134.81
2022-07-27T18:02:25.703Z,98131.19
2022-07-27T18:05:14.663Z,98138.50
2022-07-27T18:08:03.096Z,98123.25
2022-07-27T18:10:52.936Z,98118.13
2022-07-27T18:13:41.952Z,98129.69
2022-07-27T18:16:31.879Z,98129.47
2022-07-27T18:19:23.377Z,98126.03
2022-07-27T18:22:11.677Z,98133.53
2022-07-27T18:25:00.096Z,98148.75
2022-07-27T18:27:50.203Z,98148.59
2022-07-27T18:30:38.811Z,98158.94
2022-07-27T18:33:27.619Z,98163.81
2022-07-27T18:36:25.824Z,98156.75
2022-07-27T18:39:14.414Z,98164.78
2022-07-27T18:42:03.976Z,98171.16
2022-07-27T18:44:53.802Z,98167.72
2022-07-27T18:47:49.086Z,98181.22
2022-07-27T18:50:39.584Z,98178.28
2022-07-27T18:53:28.463Z,98193.84
2022-07-27T18:56:16.854Z,98190.94
2022-07-27T18:59:05.266Z,98189.47
2022-07-27T19:01:55.037Z,98191.84
2022-07-27T19:04:44.554Z,98189.28
2022-07-27T19:07:33.187Z,98187.34
2022-07-27T19:10:25.204Z,98186.72
2022-07-27T19:13:14.113Z,98181.47
2022-07-27T19:16:02.553Z,98184.00
2022-07-27T19:18:52.920Z,98196.44
2022-07-27T19:21:41.455Z,98200.34
2022-07-27T19:24:29.895Z,98195.84
2022-07-27T19:27:18.448Z,98196.56
2022-07-27T19:30:08.024Z,98188.59
2022-07-27T19:32:56.615Z,98195.91
2022-07-27T19:35:46.608Z,98204.44
2022-07-27T19:38:35.270Z,98206.69
2022-07-27T19:41:23.664Z,98211.25
2022-07-27T19:44:12.143Z,98208.25
2022-07-27T19:47:00.825Z,98215.94
2022-07-27T19:49:49.313Z,98216.09
2022-07-27T19:52:39.031Z,98211.22
2022-07-27T19:55:27.674Z,98221.00
2022-07-27T19:58:16.254Z,98221.56
2022-07-27T20:01:04.929Z,98220.97
2022-07-27T20:03:58.198Z,98224.19
2022-07-27T20:06:46.563Z,98231.03
2022-07-27T20:09:36.319Z,98237.78
2022-07-27T20:12:25.495Z,98246.19
2022-07-27T20:15:13.937Z,98251.09
2022-07-27T20:18:02.563Z,98251.09
2022-07-27T20:20:50.973Z,98246.19
2022-07-27T20:23:44.664Z,98246.94
2022-07-27T20:26:34.495Z,98251.59
2022-07-27T20:29:23.112Z,98260.06
2022-07-27T20:32:12.737Z,98255.69
2022-07-27T20:35:01.374Z,98252.44
2022-07-27T20:37:49.796Z,98268.44
2022-07-27T20:40:38.155Z,98271.34
2022-07-27T20:43:27.934Z,98265.53
2022-07-27T20:46:16.347Z,98270.69
2022-07-27T20:49:04.995Z,98268.97
2022-07-27T20:51:53.444Z,98282.84
2022-07-27T20:54:41.835Z,98275.72
2022-07-27T20:57:30.247Z,98278.72
2022-07-27T21:00:21.821Z,98286.38
2022-07-27T21:03:11.921Z,98282.97
2022-07-27T21:06:00.287Z,98284.72
2022-07-27T21:08:48.636Z,98296.44
2022-07-27T21:11:37.101Z,98294.84
2022-07-27T21:14:25.611Z,98293.25
2022-07-27T21:17:15.375Z,98289.53
2022-07-27T21:20:03.819Z,98299.69
2022-07-27T21:23:12.865Z,98293.91
2022-07-27T21:26:01.253Z,98299.28
2022-07-27T21:28:49.623Z,98294.91
2022-07-27T21:31:38.268Z,98298.88
2022-07-27T21:34:27.960Z,98299.88
2022-07-27T21:37:16.347Z,98301.47
2022-07-27T21:40:05.094Z,98302.16
2022-07-27T21:42:53.411Z,98300.38
2022-07-27T21:45:48.349Z,98300.22
2022-07-27T21:48:38.310Z,98303.84
2022-07-27T21:51:28.031Z,98303.91
2022-07-27T21:54:17.063Z,98303.22
2022-07-27T21:57:06.468Z,98316.59
2022-07-27T21:59:54.854Z,98320.22
2022-07-27T22:02:43.291Z,98325.94
2022-07-27T22:05:31.753Z,98325.63
2022-07-27T22:08:21.529Z,98330.88
2022-07-27T22:11:10.289Z,98329.59
2022-07-27T22:13:58.633Z,98334.13
2022-07-27T22:16:47.179Z,98334.66
2022-07-27T22:19:35.639Z,98349.59
2022-07-27T22:22:24.039Z,98352.41
2022-07-27T22:25:14.763Z,98358.19
2022-07-27T22:28:03.225Z,98345.59
2022-07-27T22:31:20.575Z,98345.13
2022-07-27T22:33:59.933Z,98360.22
2022-07-27T22:36:48.257Z,98354.00
2022-07-27T22:39:36.611Z,98346.22
2022-07-27T22:42:28.580Z,98351.75
2022-07-27T22:45:17.312Z,98357.06
2022-07-27T22:48:06.193Z,98366.41
2022-07-27T22:50:54.542Z,98360.88
2022-07-27T22:53:42.921Z,98358.22
2022-07-27T22:56:31.365Z,98352.16
2022-07-27T22:59:21.166Z,98356.09
2022-07-27T23:02:09.618Z,98372.34
2022-07-27T23:04:57.954Z,98382.16
2022-07-27T23:07:46.360Z,98364.09
2022-07-27T23:10:46.742Z,98377.50
2022-07-27T23:13:35.066Z,98371.94
2022-07-27T23:16:24.848Z,98365.53
2022-07-27T23:19:13.408Z,98381.38
2022-07-27T23:22:01.889Z,98379.63
2022-07-27T23:24:50.256Z,98387.16
2022-07-27T23:27:40.042Z,98372.50
2022-07-27T23:30:28.423Z,98379.50
2022-07-27T23:33:18.269Z,98374.25
2022-07-27T23:36:06.827Z,98362.19
2022-07-27T23:38:55.192Z,98369.59
2022-07-27T23:41:49.409Z,98379.66
2022-07-27T23:44:38.269Z,98387.31
2022-07-27T23:47:26.632Z,98392.16
2022-07-27T23:50:17.261Z,98394.97
2022-07-27T23:53:05.702Z,98397.63
2022-07-27T23:55:57.401Z,98378.44
2022-07-27T23:58:46.069Z,98390.59
